Yale, OK (74085)

5:31 PM CST on November 25, 2014 (GMT -0600)
Western Heights | Change Station
CLOSE
Current Station
Personal Weather Station
Location: Yale, OK
Elevation: 886 ft
Nearby Weather Stations

Elev 886 ft 36.12 °N, 96.71 °W | Updated 36 seconds ago

Clear
Clear
46.0 °F
Feels Like 46 °F
N
3.0
Wind Variable Wind from SSE
Gusts 8.0 mph

Today
High -- | Low -- °F
--% Chance of Precip.
Yesterday
High -- | Low -- °F
Precip. -- in
7:13 AM 5:13 PM
Waxing Crescent, 14% visible
Pressure 30.11 in
Visibility 10.0 miles
Clouds Clear
Windchill 46 °F
Dew Point 27 °F
Humidity 47%
Rainfall -999.00 in
Snow Depth Not available.
UV 0 out of 12
Pollen 2.10 out of 12
Air Quality Not available.
Flu Activity Not available.
METAR KCUH 252315Z AUTO 18004KT 10SM CLR 08/00 A3011 RMK AO2

More Conditions Fewer Conditions

Pressure 30.11 in
Visibility 10.0 miles
Clouds Clear
Windchill 46 °F
Dew Point 27 °F
Humidity 47%
Rainfall -999.00 in
Snow Depth Not available.
UV 0 out of 12
Pollen 2.10 out of 12
Air Quality Not available.
Flu Activity Not available.
METAR KCUH 252315Z AUTO 18004KT 10SM CLR 08/00 A3011 RMK AO2

More Conditions Fewer Conditions

10-Day Weather Forecast

Almanac

Astronomy

Nov. 25, 2014 Rise Set
Actual Time
Civil Twilight
Nautical Twilight
Astronomical Twilight
Moon
Length of Visible Light
Length of Day
Tomorrow will be .
, % of the Moon is Illuminated

Today's Extremes

State Highs State Lows

Community

WunderPhotos

Upload Photos

1,773,624 photos uploaded!

WunderBlogs® & News

Nearby

Air Quality

  Air Quality AQ Index Pollutant
Not available.

Snow Depth

Station Depth Elevation

Earthquake Activity

City Distance Mag. Time & Date
Minimum magnitude displayed is 2.5.

Coastal Water Temperatures

Place Temperature

Nearby Weather Stations